sensor_id;sensor_type;location;lat;lon;timestamp;temperature;humidity
9975;DHT22;5028;50.974;4.968;2023-07-28T00:02:07;17.50;99.90
9975;DHT22;5028;50.974;4.968;2023-07-28T00:04:36;17.50;99.90
9975;DHT22;5028;50.974;4.968;2023-07-28T00:07:05;17.50;99.90
9975;DHT22;5028;50.974;4.968;2023-07-28T00:09:33;17.50;99.90
9975;DHT22;5028;50.974;4.968;2023-07-28T00:12:03;17.50;99.90
9975;DHT22;5028;50.974;4.968;2023-07-28T00:14:32;17.50;99.90
9975;DHT22;5028;50.974;4.968;2023-07-28T00:17:00;17.50;99.90
9975;DHT22;5028;50.974;4.968;2023-07-28T00:19:28;17.50;99.90
9975;DHT22;5028;50.974;4.968;2023-07-28T00:21:56;17.50;99.90
9975;DHT22;5028;50.974;4.968;2023-07-28T00:24:24;17.50;99.90
9975;DHT22;5028;50.974;4.968;2023-07-28T00:26:52;17.50;99.90
9975;DHT22;5028;50.974;4.968;2023-07-28T00:29:22;17.50;99.90
9975;DHT22;5028;50.974;4.968;2023-07-28T00:31:50;17.50;99.90
9975;DHT22;5028;50.974;4.968;2023-07-28T00:34:19;17.50;99.90
9975;DHT22;5028;50.974;4.968;2023-07-28T00:36:48;17.50;99.90
9975;DHT22;5028;50.974;4.968;2023-07-28T00:39:16;17.50;99.90
9975;DHT22;5028;50.974;4.968;2023-07-28T00:41:45;17.50;99.90
9975;DHT22;5028;50.974;4.968;2023-07-28T00:44:14;17.50;99.90
9975;DHT22;5028;50.974;4.968;2023-07-28T00:46:45;17.50;99.90
9975;DHT22;5028;50.974;4.968;2023-07-28T00:49:13;17.50;99.90
9975;DHT22;5028;50.974;4.968;2023-07-28T00:51:42;17.50;99.90
9975;DHT22;5028;50.974;4.968;2023-07-28T00:54:11;17.50;99.90
9975;DHT22;5028;50.974;4.968;2023-07-28T00:56:40;17.50;99.90
9975;DHT22;5028;50.974;4.968;2023-07-28T00:59:08;17.50;99.90
9975;DHT22;5028;50.974;4.968;2023-07-28T01:01:36;17.50;99.90
9975;DHT22;5028;50.974;4.968;2023-07-28T01:04:06;17.50;99.90
9975;DHT22;5028;50.974;4.968;2023-07-28T01:06:40;17.50;99.90
9975;DHT22;5028;50.974;4.968;2023-07-28T01:09:12;17.50;99.90
9975;DHT22;5028;50.974;4.968;2023-07-28T01:11:53;17.50;99.90
9975;DHT22;5028;50.974;4.968;2023-07-28T01:14:21;17.50;99.90
9975;DHT22;5028;50.974;4.968;2023-07-28T01:16:49;17.50;99.90
9975;DHT22;5028;50.974;4.968;2023-07-28T01:19:21;17.50;99.90
9975;DHT22;5028;50.974;4.968;2023-07-28T01:21:54;17.50;99.90
9975;DHT22;5028;50.974;4.968;2023-07-28T01:24:29;17.50;99.90
9975;DHT22;5028;50.974;4.968;2023-07-28T01:27:02;17.50;99.90
9975;DHT22;5028;50.974;4.968;2023-07-28T01:29:31;17.50;99.90
9975;DHT22;5028;50.974;4.968;2023-07-28T01:31:59;17.50;99.90
9975;DHT22;5028;50.974;4.968;2023-07-28T01:34:27;17.50;99.90
9975;DHT22;5028;50.974;4.968;2023-07-28T01:36:56;17.50;99.90
9975;DHT22;5028;50.974;4.968;2023-07-28T01:39:24;17.50;99.90
9975;DHT22;5028;50.974;4.968;2023-07-28T01:41:52;17.50;99.90
9975;DHT22;5028;50.974;4.968;2023-07-28T01:44:22;17.50;99.90
9975;DHT22;5028;50.974;4.968;2023-07-28T01:46:50;17.50;99.90
9975;DHT22;5028;50.974;4.968;2023-07-28T01:49:18;17.50;99.90
9975;DHT22;5028;50.974;4.968;2023-07-28T01:51:46;17.50;99.90
9975;DHT22;5028;50.974;4.968;2023-07-28T01:54:14;17.50;99.90
9975;DHT22;5028;50.974;4.968;2023-07-28T01:56:42;17.50;99.90
9975;DHT22;5028;50.974;4.968;2023-07-28T01:59:11;17.50;99.90
9975;DHT22;5028;50.974;4.968;2023-07-28T02:01:42;17.50;99.90
9975;DHT22;5028;50.974;4.968;2023-07-28T02:04:10;17.50;99.90
9975;DHT22;5028;50.974;4.968;2023-07-28T02:06:39;17.50;99.90
9975;DHT22;5028;50.974;4.968;2023-07-28T02:09:07;17.50;99.90
9975;DHT22;5028;50.974;4.968;2023-07-28T02:11:35;17.50;99.90
9975;DHT22;5028;50.974;4.968;2023-07-28T02:14:04;17.50;99.90
9975;DHT22;5028;50.974;4.968;2023-07-28T02:16:32;17.50;99.90
9975;DHT22;5028;50.974;4.968;2023-07-28T02:19:02;17.50;99.90
9975;DHT22;5028;50.974;4.968;2023-07-28T02:21:31;17.50;99.90
9975;DHT22;5028;50.974;4.968;2023-07-28T02:23:59;17.50;99.90
9975;DHT22;5028;50.974;4.968;2023-07-28T02:26:28;17.50;99.90
9975;DHT22;5028;50.974;4.968;2023-07-28T02:28:56;17.50;99.90
9975;DHT22;5028;50.974;4.968;2023-07-28T02:31:25;17.50;99.90
9975;DHT22;5028;50.974;4.968;2023-07-28T02:33:53;17.50;99.90
9975;DHT22;5028;50.974;4.968;2023-07-28T02:36:23;17.50;99.90
9975;DHT22;5028;50.974;4.968;2023-07-28T02:38:51;17.50;99.90
9975;DHT22;5028;50.974;4.968;2023-07-28T02:41:20;17.50;99.90
9975;DHT22;5028;50.974;4.968;2023-07-28T02:43:49;17.50;99.90
9975;DHT22;5028;50.974;4.968;2023-07-28T02:46:17;17.50;99.90
9975;DHT22;5028;50.974;4.968;2023-07-28T02:48:45;17.50;99.90
9975;DHT22;5028;50.974;4.968;2023-07-28T02:51:14;17.50;99.90
9975;DHT22;5028;50.974;4.968;2023-07-28T02:53:43;17.50;99.90
9975;DHT22;5028;50.974;4.968;2023-07-28T02:56:12;17.60;99.90
9975;DHT22;5028;50.974;4.968;2023-07-28T02:58:40;17.50;99.90
9975;DHT22;5028;50.974;4.968;2023-07-28T03:01:08;17.60;99.90
9975;DHT22;5028;50.974;4.968;2023-07-28T03:03:36;17.60;99.90
9975;DHT22;5028;50.974;4.968;2023-07-28T03:06:04;17.50;99.90
9975;DHT22;5028;50.974;4.968;2023-07-28T03:08:33;17.50;99.90
9975;DHT22;5028;50.974;4.968;2023-07-28T03:11:02;17.50;99.90
9975;DHT22;5028;50.974;4.968;2023-07-28T03:13:31;17.50;99.90
9975;DHT22;5028;50.974;4.968;2023-07-28T03:15:59;17.50;99.90
9975;DHT22;5028;50.974;4.968;2023-07-28T03:18:27;17.50;99.90
9975;DHT22;5028;50.974;4.968;2023-07-28T03:20:55;17.50;99.90
9975;DHT22;5028;50.974;4.968;2023-07-28T03:23:24;17.60;99.90
9975;DHT22;5028;50.974;4.968;2023-07-28T03:25:52;17.60;99.90
9975;DHT22;5028;50.974;4.968;2023-07-28T03:28:21;17.60;99.90
9975;DHT22;5028;50.974;4.968;2023-07-28T03:30:50;17.60;99.90
9975;DHT22;5028;50.974;4.968;2023-07-28T03:33:18;17.60;99.90
9975;DHT22;5028;50.974;4.968;2023-07-28T03:35:46;17.60;99.90
9975;DHT22;5028;50.974;4.968;2023-07-28T03:38:14;17.60;99.90
9975;DHT22;5028;50.974;4.968;2023-07-28T03:40:42;17.60;99.90
9975;DHT22;5028;50.974;4.968;2023-07-28T03:43:11;17.60;99.90
9975;DHT22;5028;50.974;4.968;2023-07-28T03:45:40;17.60;99.90
9975;DHT22;5028;50.974;4.968;2023-07-28T03:48:09;17.60;99.90
9975;DHT22;5028;50.974;4.968;2023-07-28T03:50:37;17.60;99.90
9975;DHT22;5028;50.974;4.968;2023-07-28T03:53:05;17.60;99.90
9975;DHT22;5028;50.974;4.968;2023-07-28T03:55:34;17.60;99.90
9975;DHT22;5028;50.974;4.968;2023-07-28T03:58:02;17.60;99.90
9975;DHT22;5028;50.974;4.968;2023-07-28T04:00:30;17.60;99.90
9975;DHT22;5028;50.974;4.968;2023-07-28T04:03:00;17.60;99.90
9975;DHT22;5028;50.974;4.968;2023-07-28T04:05:28;17.60;99.90
9975;DHT22;5028;50.974;4.968;2023-07-28T04:07:56;17.60;99.90
9975;DHT22;5028;50.974;4.968;2023-07-28T04:10:25;17.60;99.90
9975;DHT22;5028;50.974;4.968;2023-07-28T04:12:53;17.60;99.90
9975;DHT22;5028;50.974;4.968;2023-07-28T04:15:21;17.60;99.90
9975;DHT22;5028;50.974;4.968;2023-07-28T04:17:49;17.60;99.90
9975;DHT22;5028;50.974;4.968;2023-07-28T04:20:19;17.60;99.90
9975;DHT22;5028;50.974;4.968;2023-07-28T04:22:47;17.60;99.90
9975;DHT22;5028;50.974;4.968;2023-07-28T04:25:15;17.60;99.90
9975;DHT22;5028;50.974;4.968;2023-07-28T04:27:44;17.60;99.90
9975;DHT22;5028;50.974;4.968;2023-07-28T04:30:12;17.60;99.90
9975;DHT22;5028;50.974;4.968;2023-07-28T04:32:40;17.60;99.90
9975;DHT22;5028;50.974;4.968;2023-07-28T04:35:08;17.60;99.90
9975;DHT22;5028;50.974;4.968;2023-07-28T04:37:38;17.60;99.90
9975;DHT22;5028;50.974;4.968;2023-07-28T04:40:08;17.60;99.90
9975;DHT22;5028;50.974;4.968;2023-07-28T04:42:36;17.60;99.90
9975;DHT22;5028;50.974;4.968;2023-07-28T04:45:05;17.60;99.90
9975;DHT22;5028;50.974;4.968;2023-07-28T04:47:34;17.60;99.90
9975;DHT22;5028;50.974;4.968;2023-07-28T04:50:02;17.70;99.90
9975;DHT22;5028;50.974;4.968;2023-07-28T04:52:31;17.70;99.90
9975;DHT22;5028;50.974;4.968;2023-07-28T04:55:00;17.70;99.90
9975;DHT22;5028;50.974;4.968;2023-07-28T04:57:29;17.70;99.90
9975;DHT22;5028;50.974;4.968;2023-07-28T04:59:57;17.80;99.90
9975;DHT22;5028;50.974;4.968;2023-07-28T05:02:25;17.70;99.90
9975;DHT22;5028;50.974;4.968;2023-07-28T05:04:54;17.70;99.90
9975;DHT22;5028;50.974;4.968;2023-07-28T05:07:22;17.80;99.90
9975;DHT22;5028;50.974;4.968;2023-07-28T05:09:50;17.80;99.90
9975;DHT22;5028;50.974;4.968;2023-07-28T05:12:20;17.70;99.90
9975;DHT22;5028;50.974;4.968;2023-07-28T05:14:48;17.70;99.90
9975;DHT22;5028;50.974;4.968;2023-07-28T05:17:16;17.70;99.90
9975;DHT22;5028;50.974;4.968;2023-07-28T05:19:45;17.70;99.90
9975;DHT22;5028;50.974;4.968;2023-07-28T05:22:13;17.70;99.90
9975;DHT22;5028;50.974;4.968;2023-07-28T05:24:41;17.80;99.90
9975;DHT22;5028;50.974;4.968;2023-07-28T05:27:10;17.80;99.90
9975;DHT22;5028;50.974;4.968;2023-07-28T05:29:40;17.80;99.90
9975;DHT22;5028;50.974;4.968;2023-07-28T05:32:08;17.80;99.90
9975;DHT22;5028;50.974;4.968;2023-07-28T05:34:36;17.80;99.90
9975;DHT22;5028;50.974;4.968;2023-07-28T05:37:05;17.80;99.90
9975;DHT22;5028;50.974;4.968;2023-07-28T05:39:33;17.90;99.90
9975;DHT22;5028;50.974;4.968;2023-07-28T05:42:01;17.90;99.90
9975;DHT22;5028;50.974;4.968;2023-07-28T05:44:30;17.90;99.90
9975;DHT22;5028;50.974;4.968;2023-07-28T05:46:59;17.90;99.90
9975;DHT22;5028;50.974;4.968;2023-07-28T05:49:27;18.00;99.90
9975;DHT22;5028;50.974;4.968;2023-07-28T05:51:55;18.00;99.90
9975;DHT22;5028;50.974;4.968;2023-07-28T05:54:24;18.00;99.90
9975;DHT22;5028;50.974;4.968;2023-07-28T05:56:52;18.00;99.90
9975;DHT22;5028;50.974;4.968;2023-07-28T05:59:20;18.00;99.90
9975;DHT22;5028;50.974;4.968;2023-07-28T06:01:48;18.10;99.90
9975;DHT22;5028;50.974;4.968;2023-07-28T06:04:18;18.10;99.90
9975;DHT22;5028;50.974;4.968;2023-07-28T06:06:47;18.10;99.90
9975;DHT22;5028;50.974;4.968;2023-07-28T06:09:15;18.20;99.90
9975;DHT22;5028;50.974;4.968;2023-07-28T06:11:44;18.20;99.90
9975;DHT22;5028;50.974;4.968;2023-07-28T06:14:12;18.30;99.90
9975;DHT22;5028;50.974;4.968;2023-07-28T06:16:41;18.40;99.90
9975;DHT22;5028;50.974;4.968;2023-07-28T06:19:09;18.50;99.90
9975;DHT22;5028;50.974;4.968;2023-07-28T06:21:39;18.50;99.90
9975;DHT22;5028;50.974;4.968;2023-07-28T06:24:07;18.60;99.90
9975;DHT22;5028;50.974;4.968;2023-07-28T06:26:35;18.60;99.90
9975;DHT22;5028;50.974;4.968;2023-07-28T06:29:03;18.70;99.90
9975;DHT22;5028;50.974;4.968;2023-07-28T06:31:32;18.70;99.90
9975;DHT22;5028;50.974;4.968;2023-07-28T06:34:01;18.70;99.90
9975;DHT22;5028;50.974;4.968;2023-07-28T06:36:29;18.70;99.90
9975;DHT22;5028;50.974;4.968;2023-07-28T06:38:59;18.80;99.90
9975;DHT22;5028;50.974;4.968;2023-07-28T06:41:28;18.90;99.90
9975;DHT22;5028;50.974;4.968;2023-07-28T06:43:56;18.90;99.90
9975;DHT22;5028;50.974;4.968;2023-07-28T06:46:24;18.90;99.90
9975;DHT22;5028;50.974;4.968;2023-07-28T06:48:53;18.80;99.90
9975;DHT22;5028;50.974;4.968;2023-07-28T06:51:21;18.80;99.90
9975;DHT22;5028;50.974;4.968;2023-07-28T06:53:49;18.90;99.90
9975;DHT22;5028;50.974;4.968;2023-07-28T06:56:19;18.90;99.90
9975;DHT22;5028;50.974;4.968;2023-07-28T06:58:47;19.00;99.90
9975;DHT22;5028;50.974;4.968;2023-07-28T07:01:34;19.20;99.90
9975;DHT22;5028;50.974;4.968;2023-07-28T07:04:03;19.10;99.90
9975;DHT22;5028;50.974;4.968;2023-07-28T07:06:33;19.20;99.90
9975;DHT22;5028;50.974;4.968;2023-07-28T07:09:01;19.20;99.90
9975;DHT22;5028;50.974;4.968;2023-07-28T07:11:31;19.20;99.90
9975;DHT22;5028;50.974;4.968;2023-07-28T07:14:00;19.20;99.90
9975;DHT22;5028;50.974;4.968;2023-07-28T07:16:28;19.30;99.90
9975;DHT22;5028;50.974;4.968;2023-07-28T07:18:57;19.20;99.90
9975;DHT22;5028;50.974;4.968;2023-07-28T07:21:26;19.20;99.90
9975;DHT22;5028;50.974;4.968;2023-07-28T07:23:55;19.20;99.90
9975;DHT22;5028;50.974;4.968;2023-07-28T07:26:23;19.10;99.90
9975;DHT22;5028;50.974;4.968;2023-07-28T07:28:53;19.30;99.90
9975;DHT22;5028;50.974;4.968;2023-07-28T07:31:21;19.40;99.90
9975;DHT22;5028;50.974;4.968;2023-07-28T07:33:52;19.50;99.90
9975;DHT22;5028;50.974;4.968;2023-07-28T07:36:22;19.50;99.90
9975;DHT22;5028;50.974;4.968;2023-07-28T07:38:51;19.50;99.90
9975;DHT22;5028;50.974;4.968;2023-07-28T07:41:22;19.50;99.90
9975;DHT22;5028;50.974;4.968;2023-07-28T07:43:54;19.40;99.90
9975;DHT22;5028;50.974;4.968;2023-07-28T07:46:23;19.50;99.90
9975;DHT22;5028;50.974;4.968;2023-07-28T07:48:51;19.70;99.90
9975;DHT22;5028;50.974;4.968;2023-07-28T07:51:20;19.80;99.90
9975;DHT22;5028;50.974;4.968;2023-07-28T07:53:48;19.70;99.90
9975;DHT22;5028;50.974;4.968;2023-07-28T07:56:16;19.60;99.90
9975;DHT22;5028;50.974;4.968;2023-07-28T07:58:45;19.60;99.90
9975;DHT22;5028;50.974;4.968;2023-07-28T08:01:14;19.60;99.90
9975;DHT22;5028;50.974;4.968;2023-07-28T08:03:43;19.50;99.90
9975;DHT22;5028;50.974;4.968;2023-07-28T08:06:11;19.60;99.90
9975;DHT22;5028;50.974;4.968;2023-07-28T08:08:41;19.90;99.90
9975;DHT22;5028;50.974;4.968;2023-07-28T08:11:11;20.00;99.90
9975;DHT22;5028;50.974;4.968;2023-07-28T08:13:39;20.00;99.90
9975;DHT22;5028;50.974;4.968;2023-07-28T08:16:07;20.20;99.90
9975;DHT22;5028;50.974;4.968;2023-07-28T08:18:37;20.30;99.90
9975;DHT22;5028;50.974;4.968;2023-07-28T08:21:06;20.50;99.90
9975;DHT22;5028;50.974;4.968;2023-07-28T08:23:34;20.50;99.90
9975;DHT22;5028;50.974;4.968;2023-07-28T08:26:03;20.60;99.90
9975;DHT22;5028;50.974;4.968;2023-07-28T08:28:32;20.70;99.90
9975;DHT22;5028;50.974;4.968;2023-07-28T08:31:00;20.70;99.90
9975;DHT22;5028;50.974;4.968;2023-07-28T08:33:30;20.70;99.90
9975;DHT22;5028;50.974;4.968;2023-07-28T08:36:00;20.60;99.90
9975;DHT22;5028;50.974;4.968;2023-07-28T08:38:31;20.70;99.90
9975;DHT22;5028;50.974;4.968;2023-07-28T08:40:59;20.70;99.90
9975;DHT22;5028;50.974;4.968;2023-07-28T08:43:28;20.80;99.90
9975;DHT22;5028;50.974;4.968;2023-07-28T08:45:56;20.90;99.90
9975;DHT22;5028;50.974;4.968;2023-07-28T08:48:25;20.90;99.90
9975;DHT22;5028;50.974;4.968;2023-07-28T08:50:54;21.00;99.90
9975;DHT22;5028;50.974;4.968;2023-07-28T08:53:24;20.90;99.90
9975;DHT22;5028;50.974;4.968;2023-07-28T08:55:52;21.10;99.90
9975;DHT22;5028;50.974;4.968;2023-07-28T08:58:22;21.20;99.90
9975;DHT22;5028;50.974;4.968;2023-07-28T09:00:52;21.30;99.90
9975;DHT22;5028;50.974;4.968;2023-07-28T09:03:21;21.20;99.90
9975;DHT22;5028;50.974;4.968;2023-07-28T09:05:59;21.20;99.90
9975;DHT22;5028;50.974;4.968;2023-07-28T09:08:30;21.40;99.90
9975;DHT22;5028;50.974;4.968;2023-07-28T09:11:02;21.50;99.90
9975;DHT22;5028;50.974;4.968;2023-07-28T09:13:41;21.40;99.90
9975;DHT22;5028;50.974;4.968;2023-07-28T09:16:19;21.30;99.90
9975;DHT22;5028;50.974;4.968;2023-07-28T09:18:49;21.30;99.90
9975;DHT22;5028;50.974;4.968;2023-07-28T09:21:18;21.30;99.90
9975;DHT22;5028;50.974;4.968;2023-07-28T09:23:49;21.30;99.90
9975;DHT22;5028;50.974;4.968;2023-07-28T09:26:18;21.30;99.90
9975;DHT22;5028;50.974;4.968;2023-07-28T09:28:46;21.20;99.90
9975;DHT22;5028;50.974;4.968;2023-07-28T09:31:15;21.30;99.90
9975;DHT22;5028;50.974;4.968;2023-07-28T09:33:43;21.20;99.90
9975;DHT22;5028;50.974;4.968;2023-07-28T09:36:14;21.20;99.90
9975;DHT22;5028;50.974;4.968;2023-07-28T09:38:44;21.20;99.90
9975;DHT22;5028;50.974;4.968;2023-07-28T09:41:14;21.20;99.90
9975;DHT22;5028;50.974;4.968;2023-07-28T09:43:42;21.20;99.90
9975;DHT22;5028;50.974;4.968;2023-07-28T09:46:13;21.20;99.90
9975;DHT22;5028;50.974;4.968;2023-07-28T09:48:45;21.20;99.90
9975;DHT22;5028;50.974;4.968;2023-07-28T09:51:18;21.10;99.90
9975;DHT22;5028;50.974;4.968;2023-07-28T09:54:04;21.10;99.90
9975;DHT22;5028;50.974;4.968;2023-07-28T09:56:34;21.10;99.90
9975;DHT22;5028;50.974;4.968;2023-07-28T09:59:11;21.20;99.90
9975;DHT22;5028;50.974;4.968;2023-07-28T10:01:40;21.10;99.90
9975;DHT22;5028;50.974;4.968;2023-07-28T10:04:12;21.20;99.90
9975;DHT22;5028;50.974;4.968;2023-07-28T10:06:42;21.10;99.90
9975;DHT22;5028;50.974;4.968;2023-07-28T10:09:55;20.90;99.90
9975;DHT22;5028;50.974;4.968;2023-07-28T10:12:25;20.80;99.90
9975;DHT22;5028;50.974;4.968;2023-07-28T10:15:00;20.70;99.90
9975;DHT22;5028;50.974;4.968;2023-07-28T10:17:32;20.70;99.90
9975;DHT22;5028;50.974;4.968;2023-07-28T10:20:03;20.80;99.90
9975;DHT22;5028;50.974;4.968;2023-07-28T10:22:43;20.90;99.90
9975;DHT22;5028;50.974;4.968;2023-07-28T10:25:22;21.00;99.90
9975;DHT22;5028;50.974;4.968;2023-07-28T10:27:51;21.10;99.90
9975;DHT22;5028;50.974;4.968;2023-07-28T10:30:21;21.00;99.90
9975;DHT22;5028;50.974;4.968;2023-07-28T10:32:50;20.90;99.90
9975;DHT22;5028;50.974;4.968;2023-07-28T10:35:26;21.10;99.90
9975;DHT22;5028;50.974;4.968;2023-07-28T10:40:42;21.50;99.90
9975;DHT22;5028;50.974;4.968;2023-07-28T10:43:12;21.50;99.90
9975;DHT22;5028;50.974;4.968;2023-07-28T10:45:41;21.40;99.90
9975;DHT22;5028;50.974;4.968;2023-07-28T10:48:12;21.30;99.90
9975;DHT22;5028;50.974;4.968;2023-07-28T10:50:41;21.30;99.90
9975;DHT22;5028;50.974;4.968;2023-07-28T10:53:10;21.30;99.90
9975;DHT22;5028;50.974;4.968;2023-07-28T10:55:39;21.10;99.90
9975;DHT22;5028;50.974;4.968;2023-07-28T10:58:07;21.00;99.90
9975;DHT22;5028;50.974;4.968;2023-07-28T11:00:37;21.10;99.90
9975;DHT22;5028;50.974;4.968;2023-07-28T11:03:08;21.20;99.90
9975;DHT22;5028;50.974;4.968;2023-07-28T11:05:37;21.40;99.90
9975;DHT22;5028;50.974;4.968;2023-07-28T11:08:07;21.50;99.90
9975;DHT22;5028;50.974;4.968;2023-07-28T11:10:35;21.80;99.90
9975;DHT22;5028;50.974;4.968;2023-07-28T11:13:06;21.90;99.90
9975;DHT22;5028;50.974;4.968;2023-07-28T11:15:56;21.90;99.90
9975;DHT22;5028;50.974;4.968;2023-07-28T11:18:26;21.70;99.90
9975;DHT22;5028;50.974;4.968;2023-07-28T11:20:54;21.80;99.90
9975;DHT22;5028;50.974;4.968;2023-07-28T11:23:23;21.90;99.90
9975;DHT22;5028;50.974;4.968;2023-07-28T11:25:52;22.10;99.90
9975;DHT22;5028;50.974;4.968;2023-07-28T11:28:20;22.30;99.90
9975;DHT22;5028;50.974;4.968;2023-07-28T11:30:49;22.60;99.90
9975;DHT22;5028;50.974;4.968;2023-07-28T11:33:19;22.70;99.90
9975;DHT22;5028;50.974;4.968;2023-07-28T11:35:48;22.60;99.90
9975;DHT22;5028;50.974;4.968;2023-07-28T11:38:16;22.40;99.90
9975;DHT22;5028;50.974;4.968;2023-07-28T11:40:45;22.20;99.90
9975;DHT22;5028;50.974;4.968;2023-07-28T11:43:14;22.30;99.90
9975;DHT22;5028;50.974;4.968;2023-07-28T11:45:42;22.60;99.90
9975;DHT22;5028;50.974;4.968;2023-07-28T11:48:10;22.90;99.90
9975;DHT22;5028;50.974;4.968;2023-07-28T11:50:41;23.00;99.90
9975;DHT22;5028;50.974;4.968;2023-07-28T11:53:10;22.90;99.90
9975;DHT22;5028;50.974;4.968;2023-07-28T11:55:39;22.90;99.90
9975;DHT22;5028;50.974;4.968;2023-07-28T11:58:07;22.80;99.90
9975;DHT22;5028;50.974;4.968;2023-07-28T12:00:39;22.80;99.90
9975;DHT22;5028;50.974;4.968;2023-07-28T12:03:11;22.80;99.90
9975;DHT22;5028;50.974;4.968;2023-07-28T12:06:01;22.80;99.90
9975;DHT22;5028;50.974;4.968;2023-07-28T12:08:34;22.70;99.90
9975;DHT22;5028;50.974;4.968;2023-07-28T12:11:03;22.60;99.90
9975;DHT22;5028;50.974;4.968;2023-07-28T12:13:47;22.50;99.90
9975;DHT22;5028;50.974;4.968;2023-07-28T12:16:34;22.40;99.90
9975;DHT22;5028;50.974;4.968;2023-07-28T12:19:06;22.20;99.90
9975;DHT22;5028;50.974;4.968;2023-07-28T12:21:36;22.20;99.90
9975;DHT22;5028;50.974;4.968;2023-07-28T12:24:04;22.40;99.90
9975;DHT22;5028;50.974;4.968;2023-07-28T12:26:34;22.70;99.90
9975;DHT22;5028;50.974;4.968;2023-07-28T12:29:06;23.00;99.90
9975;DHT22;5028;50.974;4.968;2023-07-28T12:31:37;23.40;99.90
9975;DHT22;5028;50.974;4.968;2023-07-28T12:34:08;23.40;99.90
9975;DHT22;5028;50.974;4.968;2023-07-28T12:36:38;23.20;99.90
9975;DHT22;5028;50.974;4.968;2023-07-28T12:39:09;23.20;99.90
9975;DHT22;5028;50.974;4.968;2023-07-28T12:41:40;23.20;99.90
9975;DHT22;5028;50.974;4.968;2023-07-28T12:44:12;23.20;99.90
9975;DHT22;5028;50.974;4.968;2023-07-28T12:46:43;23.00;99.90
9975;DHT22;5028;50.974;4.968;2023-07-28T12:49:11;23.10;99.90
9975;DHT22;5028;50.974;4.968;2023-07-28T12:51:44;23.30;99.90
9975;DHT22;5028;50.974;4.968;2023-07-28T12:54:16;23.60;99.90
9975;DHT22;5028;50.974;4.968;2023-07-28T12:56:46;24.10;99.90
9975;DHT22;5028;50.974;4.968;2023-07-28T12:59:35;24.70;99.90
9975;DHT22;5028;50.974;4.968;2023-07-28T13:02:23;25.10;99.90
9975;DHT22;5028;50.974;4.968;2023-07-28T13:04:51;25.00;99.90
9975;DHT22;5028;50.974;4.968;2023-07-28T13:07:21;25.00;99.90
9975;DHT22;5028;50.974;4.968;2023-07-28T13:10:00;25.00;99.90
9975;DHT22;5028;50.974;4.968;2023-07-28T13:12:28;25.20;99.90
9975;DHT22;5028;50.974;4.968;2023-07-28T13:15:00;25.70;99.90
9975;DHT22;5028;50.974;4.968;2023-07-28T13:17:28;25.90;99.90
9975;DHT22;5028;50.974;4.968;2023-07-28T13:19:57;26.00;99.90
9975;DHT22;5028;50.974;4.968;2023-07-28T13:22:27;25.80;99.90
9975;DHT22;5028;50.974;4.968;2023-07-28T13:24:55;25.20;99.90
9975;DHT22;5028;50.974;4.968;2023-07-28T13:27:23;24.70;99.90
9975;DHT22;5028;50.974;4.968;2023-07-28T13:29:52;24.40;99.90
9975;DHT22;5028;50.974;4.968;2023-07-28T13:32:23;24.30;99.90
9975;DHT22;5028;50.974;4.968;2023-07-28T13:34:52;24.50;99.90
9975;DHT22;5028;50.974;4.968;2023-07-28T13:37:21;25.00;99.90
9975;DHT22;5028;50.974;4.968;2023-07-28T13:39:50;25.00;99.90
9975;DHT22;5028;50.974;4.968;2023-07-28T13:42:19;24.90;99.90
9975;DHT22;5028;50.974;4.968;2023-07-28T13:44:48;24.90;99.90
9975;DHT22;5028;50.974;4.968;2023-07-28T13:47:24;25.20;99.90
9975;DHT22;5028;50.974;4.968;2023-07-28T13:49:53;25.60;99.90
9975;DHT22;5028;50.974;4.968;2023-07-28T13:52:21;25.70;99.90
9975;DHT22;5028;50.974;4.968;2023-07-28T13:54:50;26.00;99.90
9975;DHT22;5028;50.974;4.968;2023-07-28T13:57:22;26.60;99.90
9975;DHT22;5028;50.974;4.968;2023-07-28T13:59:50;26.60;99.90
9975;DHT22;5028;50.974;4.968;2023-07-28T14:02:18;26.10;99.90
9975;DHT22;5028;50.974;4.968;2023-07-28T14:04:47;25.50;99.90
9975;DHT22;5028;50.974;4.968;2023-07-28T14:07:15;25.30;99.90
9975;DHT22;5028;50.974;4.968;2023-07-28T14:09:43;25.00;99.90
9975;DHT22;5028;50.974;4.968;2023-07-28T14:12:13;24.90;99.90
9975;DHT22;5028;50.974;4.968;2023-07-28T14:14:41;24.90;99.90
9975;DHT22;5028;50.974;4.968;2023-07-28T14:17:09;25.00;99.90
9975;DHT22;5028;50.974;4.968;2023-07-28T14:19:38;25.20;99.90
9975;DHT22;5028;50.974;4.968;2023-07-28T14:22:07;25.40;99.90
9975;DHT22;5028;50.974;4.968;2023-07-28T14:24:35;25.30;99.90
9975;DHT22;5028;50.974;4.968;2023-07-28T14:27:04;25.50;99.90
9975;DHT22;5028;50.974;4.968;2023-07-28T14:29:34;25.90;99.90
9975;DHT22;5028;50.974;4.968;2023-07-28T14:32:02;26.10;99.90
9975;DHT22;5028;50.974;4.968;2023-07-28T14:34:31;26.50;99.90
9975;DHT22;5028;50.974;4.968;2023-07-28T14:37:03;26.70;99.90
9975;DHT22;5028;50.974;4.968;2023-07-28T14:39:31;26.80;99.90
9975;DHT22;5028;50.974;4.968;2023-07-28T14:42:00;26.50;99.90
9975;DHT22;5028;50.974;4.968;2023-07-28T14:44:28;26.40;99.90
9975;DHT22;5028;50.974;4.968;2023-07-28T14:46:58;26.50;99.90
9975;DHT22;5028;50.974;4.968;2023-07-28T14:49:26;26.50;99.90
9975;DHT22;5028;50.974;4.968;2023-07-28T14:51:55;26.50;99.90
9975;DHT22;5028;50.974;4.968;2023-07-28T14:54:24;26.40;99.90
9975;DHT22;5028;50.974;4.968;2023-07-28T14:56:52;26.50;99.90
9975;DHT22;5028;50.974;4.968;2023-07-28T14:59:20;26.50;99.90
9975;DHT22;5028;50.974;4.968;2023-07-28T15:01:49;26.20;99.90
9975;DHT22;5028;50.974;4.968;2023-07-28T15:04:18;26.00;99.90
9975;DHT22;5028;50.974;4.968;2023-07-28T15:06:47;25.90;99.90
9975;DHT22;5028;50.974;4.968;2023-07-28T15:09:15;25.70;99.90
9975;DHT22;5028;50.974;4.968;2023-07-28T15:11:48;25.60;99.90
9975;DHT22;5028;50.974;4.968;2023-07-28T15:14:17;25.60;99.90
9975;DHT22;5028;50.974;4.968;2023-07-28T15:16:45;25.30;99.90
9975;DHT22;5028;50.974;4.968;2023-07-28T15:19:13;25.20;99.90
9975;DHT22;5028;50.974;4.968;2023-07-28T15:21:43;25.10;99.90
9975;DHT22;5028;50.974;4.968;2023-07-28T15:24:11;25.20;99.90
9975;DHT22;5028;50.974;4.968;2023-07-28T15:26:39;25.20;99.90
9975;DHT22;5028;50.974;4.968;2023-07-28T15:29:13;25.30;99.90
9975;DHT22;5028;50.974;4.968;2023-07-28T15:31:42;25.30;99.90
9975;DHT22;5028;50.974;4.968;2023-07-28T15:34:10;25.20;99.90
9975;DHT22;5028;50.974;4.968;2023-07-28T15:36:38;25.10;99.90
9975;DHT22;5028;50.974;4.968;2023-07-28T15:39:10;24.90;99.90
9975;DHT22;5028;50.974;4.968;2023-07-28T15:41:38;24.90;99.90
9975;DHT22;5028;50.974;4.968;2023-07-28T15:44:06;25.00;99.90
9975;DHT22;5028;50.974;4.968;2023-07-28T15:46:36;24.90;99.90
9975;DHT22;5028;50.974;4.968;2023-07-28T15:49:04;24.90;99.90
9975;DHT22;5028;50.974;4.968;2023-07-28T15:51:33;25.00;99.90
9975;DHT22;5028;50.974;4.968;2023-07-28T15:54:02;25.00;99.90
9975;DHT22;5028;50.974;4.968;2023-07-28T15:56:33;24.80;99.90
9975;DHT22;5028;50.974;4.968;2023-07-28T15:59:02;24.70;99.90
9975;DHT22;5028;50.974;4.968;2023-07-28T16:01:30;24.60;99.90
9975;DHT22;5028;50.974;4.968;2023-07-28T16:03:59;24.60;99.90
9975;DHT22;5028;50.974;4.968;2023-07-28T16:06:27;24.70;99.90
9975;DHT22;5028;50.974;4.968;2023-07-28T16:08:55;24.70;99.90
9975;DHT22;5028;50.974;4.968;2023-07-28T16:11:30;24.70;99.90
9975;DHT22;5028;50.974;4.968;2023-07-28T16:14:01;24.70;99.90
9975;DHT22;5028;50.974;4.968;2023-07-28T16:16:29;24.60;99.90
9975;DHT22;5028;50.974;4.968;2023-07-28T16:18:57;24.50;99.90
9975;DHT22;5028;50.974;4.968;2023-07-28T16:21:26;24.50;99.90